createdAt,value
2018-11-06T00:01:55.152Z,20.24
2018-11-06T00:04:28.879Z,20.26
2018-11-06T00:06:57.339Z,20.24
2018-11-06T00:09:25.861Z,20.25
2018-11-06T00:11:54.306Z,20.24
2018-11-06T00:14:22.767Z,20.25
2018-11-06T00:16:51.635Z,20.24
2018-11-06T00:19:20.090Z,20.24
2018-11-06T00:21:48.583Z,20.26
2018-11-06T00:24:17.041Z,20.26
2018-11-06T00:26:45.528Z,20.27
2018-11-06T00:29:13.981Z,20.27
2018-11-06T00:31:42.447Z,20.26
2018-11-06T00:34:10.987Z,20.25
2018-11-06T00:36:39.393Z,20.26
2018-11-06T00:39:08.664Z,20.26
2018-11-06T00:41:37.150Z,20.25
2018-11-06T00:44:05.751Z,20.25
2018-11-06T00:46:34.223Z,20.25
2018-11-06T00:49:02.723Z,20.26
2018-11-06T00:51:31.317Z,20.25
2018-11-06T00:53:59.771Z,20.25
2018-11-06T00:56:28.255Z,20.25
2018-11-06T00:58:56.844Z,20.26
2018-11-06T01:01:25.315Z,20.26
2018-11-06T01:04:13.683Z,20.25
2018-11-06T01:06:42.319Z,20.25
2018-11-06T01:09:12.438Z,20.26
2018-11-06T01:11:41.635Z,20.24
2018-11-06T01:14:10.103Z,20.26
2018-11-06T01:16:38.921Z,20.25
2018-11-06T01:19:07.970Z,20.26
2018-11-06T01:21:36.436Z,20.25
2018-11-06T01:24:04.902Z,20.26
2018-11-06T01:26:33.591Z,20.24
2018-11-06T01:29:02.332Z,20.25
2018-11-06T01:31:30.802Z,20.24
2018-11-06T01:33:59.294Z,20.24
2018-11-06T01:36:27.758Z,20.24
2018-11-06T01:38:56.207Z,20.24
2018-11-06T01:41:24.667Z,20.24
2018-11-06T01:43:53.154Z,20.26
2018-11-06T01:46:21.597Z,20.26
2018-11-06T01:48:50.072Z,20.26
2018-11-06T01:51:18.534Z,20.26
2018-11-06T01:53:47.078Z,20.26
2018-11-06T01:56:15.541Z,20.26
2018-11-06T01:58:44.019Z,20.27
2018-11-06T02:01:12.478Z,20.27
2018-11-06T02:03:41.197Z,20.28
2018-11-06T02:06:09.834Z,20.28
2018-11-06T02:08:38.285Z,20.29
2018-11-06T02:11:06.765Z,20.29
2018-11-06T02:13:35.222Z,20.29
2018-11-06T02:16:03.690Z,20.28
2018-11-06T02:18:32.258Z,20.29
2018-11-06T02:21:00.715Z,20.29
2018-11-06T02:23:29.170Z,20.28
2018-11-06T02:25:57.647Z,20.29
2018-11-06T02:28:26.110Z,20.29
2018-11-06T02:30:54.571Z,20.29
2018-11-06T02:33:23.027Z,20.29
2018-11-06T02:35:51.491Z,20.29
2018-11-06T02:38:19.999Z,20.29
2018-11-06T02:40:48.462Z,20.29
2018-11-06T02:43:16.976Z,20.29
2018-11-06T02:45:45.451Z,20.28
2018-11-06T02:48:13.951Z,20.28
2018-11-06T02:50:42.418Z,20.28
2018-11-06T02:53:10.861Z,20.28
2018-11-06T02:55:39.383Z,20.29
2018-11-06T02:58:07.816Z,20.28
2018-11-06T03:00:36.291Z,20.27
2018-11-06T03:03:04.978Z,19.89
2018-11-06T03:05:33.438Z,20.28
2018-11-06T03:08:01.894Z,20.26
2018-11-06T03:10:30.410Z,20.27
2018-11-06T03:12:58.863Z,20.27
2018-11-06T03:15:27.322Z,20.28
2018-11-06T03:17:55.790Z,20.26
2018-11-06T03:20:24.252Z,20.26
2018-11-06T03:22:52.735Z,20.27
2018-11-06T03:25:21.288Z,20.27
2018-11-06T03:27:49.742Z,20.27
2018-11-06T03:30:18.192Z,20.26
2018-11-06T03:32:46.647Z,20.26
2018-11-06T03:35:15.786Z,20.26
2018-11-06T03:37:44.270Z,20.26
2018-11-06T03:40:13.286Z,20.25
2018-11-06T03:42:44.875Z,20.26
2018-11-06T03:45:13.998Z,20.25
2018-11-06T03:47:42.475Z,20.25
2018-11-06T03:50:12.291Z,20.25
2018-11-06T03:52:40.879Z,20.25
2018-11-06T03:55:09.866Z,20.24
2018-11-06T03:57:38.436Z,20.24
2018-11-06T04:00:09.138Z,20.23
2018-11-06T04:02:37.643Z,20.24
2018-11-06T04:05:06.866Z,20.24
2018-11-06T04:07:35.357Z,20.24
2018-11-06T04:10:04.659Z,20.23
2018-11-06T04:12:33.175Z,20.25
2018-11-06T04:15:01.649Z,20.23
2018-11-06T04:17:30.140Z,20.24
2018-11-06T04:19:58.617Z,20.24
2018-11-06T04:22:27.092Z,20.23
2018-11-06T04:24:55.587Z,20.25
2018-11-06T04:27:24.047Z,20.24
2018-11-06T04:29:53.079Z,20.24
2018-11-06T04:32:21.619Z,20.24
2018-11-06T04:34:50.410Z,20.24
2018-11-06T04:37:19.427Z,20.23
2018-11-06T04:39:48.521Z,20.25
2018-11-06T04:42:17.522Z,20.25
2018-11-06T04:44:46.392Z,20.25
2018-11-06T04:47:15.012Z,20.25
2018-11-06T04:49:43.503Z,20.26
2018-11-06T04:52:11.999Z,20.25
2018-11-06T04:54:40.760Z,20.26
2018-11-06T04:57:09.730Z,20.26
2018-11-06T04:59:38.840Z,20.26
2018-11-06T05:02:08.093Z,20.26
2018-11-06T05:04:36.889Z,20.25
2018-11-06T05:07:05.823Z,20.25
2018-11-06T05:09:34.298Z,20.24
2018-11-06T05:12:02.808Z,20.25
2018-11-06T05:14:31.275Z,20.25
2018-11-06T05:16:59.751Z,20.25
2018-11-06T05:19:28.212Z,20.25
2018-11-06T05:21:56.695Z,20.26
2018-11-06T05:24:25.168Z,20.26
2018-11-06T05:26:53.674Z,20.26
2018-11-06T05:29:22.150Z,20.26
2018-11-06T05:31:50.623Z,20.25
2018-11-06T05:34:19.097Z,20.26
2018-11-06T05:36:47.579Z,20.23
2018-11-06T05:39:16.077Z,20.23
2018-11-06T05:41:44.572Z,20.24
2018-11-06T05:44:13.038Z,20.24
2018-11-06T05:46:41.528Z,20.26
2018-11-06T05:49:10.016Z,20.27
2018-11-06T05:51:38.487Z,20.26
2018-11-06T05:54:06.985Z,20.26
2018-11-06T05:56:35.450Z,20.26
2018-11-06T05:59:03.928Z,20.26
2018-11-06T06:01:32.426Z,20.25
2018-11-06T06:04:00.894Z,20.26
2018-11-06T06:06:29.357Z,20.25
2018-11-06T06:08:57.818Z,20.25
2018-11-06T06:11:26.565Z,20.26
2018-11-06T06:13:55.103Z,20.26
2018-11-06T06:16:23.585Z,20.26
2018-11-06T06:18:52.075Z,20.25
2018-11-06T06:21:20.542Z,20.26
2018-11-06T06:23:49.040Z,20.27
2018-11-06T06:26:17.522Z,20.28
2018-11-06T06:28:46.005Z,20.28
2018-11-06T06:31:14.480Z,20.28
2018-11-06T06:33:42.957Z,20.27
2018-11-06T06:36:11.467Z,20.27
2018-11-06T06:38:39.984Z,20.29
2018-11-06T06:41:08.448Z,20.30
2018-11-06T06:43:36.921Z,20.30
2018-11-06T06:46:05.496Z,20.30
2018-11-06T06:48:33.962Z,20.30
2018-11-06T06:51:02.425Z,20.31
2018-11-06T06:53:30.902Z,20.31
2018-11-06T06:55:59.403Z,20.32
2018-11-06T06:58:28.082Z,20.32
2018-11-06T07:00:56.567Z,20.31
2018-11-06T07:03:25.053Z,20.31
2018-11-06T07:05:53.530Z,20.31
2018-11-06T07:08:22.012Z,20.32
2018-11-06T07:10:50.505Z,20.32
2018-11-06T07:13:19.033Z,20.32
2018-11-06T07:15:47.508Z,20.32
2018-11-06T07:18:15.983Z,20.20
2018-11-06T07:20:44.450Z,20.31
2018-11-06T07:23:12.910Z,20.31
2018-11-06T07:25:41.399Z,20.31
2018-11-06T07:28:09.877Z,20.31
2018-11-06T07:30:38.371Z,20.30
2018-11-06T07:33:06.847Z,20.29
2018-11-06T07:35:35.478Z,20.30
2018-11-06T07:38:03.847Z,20.30
2018-11-06T07:40:32.451Z,20.30
2018-11-06T07:43:00.871Z,20.29
2018-11-06T07:45:29.380Z,20.29
2018-11-06T07:47:57.862Z,20.30
2018-11-06T07:50:26.375Z,20.18
2018-11-06T07:52:54.930Z,20.28
2018-11-06T07:55:23.412Z,20.29
2018-11-06T07:57:51.890Z,20.29
2018-11-06T08:00:22.693Z,20.29
2018-11-06T08:02:51.483Z,20.29
2018-11-06T08:05:20.179Z,20.29
2018-11-06T08:07:49.386Z,20.28
2018-11-06T08:10:17.882Z,20.27
2018-11-06T08:12:47.874Z,20.27
2018-11-06T08:15:16.470Z,20.28
2018-11-06T08:17:45.457Z,20.28
2018-11-06T08:20:14.140Z,20.28
2018-11-06T08:22:42.598Z,20.27
2018-11-06T08:25:12.432Z,20.28
2018-11-06T08:27:41.734Z,20.28
2018-11-06T08:30:10.740Z,20.28
2018-11-06T08:32:39.682Z,20.28
2018-11-06T08:35:09.735Z,20.28
2018-11-06T08:37:38.207Z,20.27
2018-11-06T08:40:07.532Z,20.28
2018-11-06T08:42:36.184Z,20.28
2018-11-06T08:45:05.714Z,20.28
2018-11-06T08:47:34.187Z,20.27
2018-11-06T08:50:02.670Z,20.25
2018-11-06T08:52:31.731Z,20.27
2018-11-06T08:55:00.194Z,20.27
2018-11-06T08:57:28.662Z,20.27
2018-11-06T08:59:57.130Z,20.25
2018-11-06T09:02:25.607Z,20.26
2018-11-06T09:04:54.111Z,20.26
2018-11-06T09:07:22.578Z,20.27
2018-11-06T09:09:51.046Z,20.27
2018-11-06T09:12:19.520Z,20.28
2018-11-06T09:14:48.189Z,20.28
2018-11-06T09:17:16.667Z,20.28
2018-11-06T09:19:45.144Z,20.27
2018-11-06T09:22:13.656Z,20.27
2018-11-06T09:24:42.134Z,20.28
2018-11-06T09:27:10.623Z,20.27
2018-11-06T09:29:39.110Z,20.28
2018-11-06T09:32:07.760Z,20.28
2018-11-06T09:34:36.240Z,20.28
2018-11-06T09:37:04.711Z,20.29
2018-11-06T09:39:33.201Z,20.30
2018-11-06T09:42:01.687Z,20.28
2018-11-06T09:44:30.178Z,20.28
2018-11-06T09:46:58.658Z,20.28
2018-11-06T09:49:27.131Z,20.29
2018-11-06T09:51:55.687Z,20.28
2018-11-06T09:54:24.147Z,20.29
2018-11-06T09:56:52.646Z,20.31
2018-11-06T09:59:21.135Z,20.30
2018-11-06T10:01:49.624Z,20.30
2018-11-06T10:04:18.117Z,20.30
2018-11-06T10:06:46.825Z,20.29
2018-11-06T10:09:15.124Z,20.07
2018-11-06T10:11:43.619Z,20.30
2018-11-06T10:14:12.095Z,20.30
2018-11-06T10:16:40.563Z,20.29
2018-11-06T10:19:09.063Z,20.30
2018-11-06T10:21:37.594Z,20.31
2018-11-06T10:24:06.530Z,20.32
2018-11-06T10:26:35.071Z,20.31
2018-11-06T10:29:03.597Z,20.32
2018-11-06T10:31:32.074Z,20.31
2018-11-06T10:34:00.553Z,20.31
2018-11-06T10:36:29.023Z,20.31
2018-11-06T10:38:57.491Z,20.31
2018-11-06T10:41:25.972Z,20.31
2018-11-06T10:43:54.476Z,20.32
2018-11-06T10:46:22.956Z,20.31
2018-11-06T10:48:51.414Z,20.30
2018-11-06T10:51:19.887Z,20.30
2018-11-06T10:53:48.355Z,20.29
2018-11-06T10:56:16.829Z,20.29
2018-11-06T10:58:45.301Z,20.28
2018-11-06T11:01:18.976Z,20.28
2018-11-06T11:03:52.799Z,20.29
2018-11-06T11:06:21.307Z,20.28
2018-11-06T11:08:49.790Z,20.27
2018-11-06T11:11:18.275Z,20.27
2018-11-06T11:13:46.743Z,20.28
2018-11-06T11:16:15.223Z,20.28
2018-11-06T11:18:43.696Z,20.28
2018-11-06T11:21:12.176Z,20.28
2018-11-06T11:23:40.693Z,20.27
2018-11-06T11:26:09.174Z,20.28
2018-11-06T11:28:37.709Z,20.27
2018-11-06T11:31:06.384Z,20.28
2018-11-06T11:33:34.880Z,20.29
2018-11-06T11:36:03.367Z,20.28
2018-11-06T11:38:31.857Z,20.28
2018-11-06T11:41:00.360Z,20.27
2018-11-06T11:43:28.817Z,20.28
2018-11-06T11:45:57.331Z,20.28
2018-11-06T11:48:25.778Z,20.29
2018-11-06T11:50:54.251Z,20.28
2018-11-06T11:53:22.729Z,20.28
2018-11-06T11:55:51.231Z,20.27
2018-11-06T11:58:19.765Z,20.28
2018-11-06T12:00:48.244Z,20.27
2018-11-06T12:03:16.721Z,20.28
2018-11-06T12:05:45.210Z,20.27
2018-11-06T12:08:13.688Z,20.28
2018-11-06T12:10:42.169Z,20.27
2018-11-06T12:13:10.640Z,20.28
2018-11-06T12:15:39.125Z,20.27
2018-11-06T12:18:07.654Z,20.27
2018-11-06T12:20:36.143Z,20.27
2018-11-06T12:23:04.941Z,20.28
2018-11-06T12:25:33.543Z,20.27
2018-11-06T12:28:01.948Z,20.27
2018-11-06T12:30:30.414Z,20.27
2018-11-06T12:32:58.895Z,20.27
2018-11-06T12:35:27.378Z,20.28
2018-11-06T12:37:55.855Z,20.27
2018-11-06T12:40:24.335Z,20.27
2018-11-06T12:42:52.858Z,20.26
2018-11-06T12:45:21.309Z,20.27
2018-11-06T12:47:49.781Z,20.27
2018-11-06T12:50:18.328Z,20.26
2018-11-06T12:52:46.790Z,20.27
2018-11-06T12:55:16.075Z,20.26
2018-11-06T12:57:44.794Z,20.26
2018-11-06T13:00:16.039Z,20.26
2018-11-06T13:02:44.542Z,20.26
2018-11-06T13:05:13.026Z,20.26
2018-11-06T13:07:42.397Z,20.27
2018-11-06T13:10:11.723Z,20.27
2018-11-06T13:12:41.229Z,20.26
2018-11-06T13:15:09.755Z,20.27
2018-11-06T13:17:38.595Z,20.26
2018-11-06T13:20:08.939Z,20.26
2018-11-06T13:22:37.687Z,20.26
2018-11-06T13:25:07.005Z,20.26
2018-11-06T13:27:35.783Z,20.26
2018-11-06T13:30:04.267Z,20.27
2018-11-06T13:32:32.965Z,20.27
2018-11-06T13:35:01.393Z,20.28
2018-11-06T13:37:29.912Z,20.27
2018-11-06T13:39:58.384Z,20.26
2018-11-06T13:42:27.195Z,20.27
2018-11-06T13:44:55.963Z,20.27
2018-11-06T13:47:24.171Z,20.27
2018-11-06T13:49:52.647Z,20.28
2018-11-06T13:52:21.278Z,20.28
2018-11-06T13:54:49.676Z,20.28
2018-11-06T13:57:18.201Z,20.28
2018-11-06T13:59:46.736Z,20.27
2018-11-06T14:02:15.270Z,20.27
2018-11-06T14:04:43.752Z,20.28
2018-11-06T14:07:12.220Z,20.27
2018-11-06T14:09:40.697Z,20.28
2018-11-06T14:12:09.191Z,20.29
2018-11-06T14:14:37.692Z,20.29
2018-11-06T14:17:06.163Z,20.28
2018-11-06T14:19:34.622Z,20.27
2018-11-06T14:22:03.098Z,20.26
2018-11-06T14:24:31.574Z,20.25
2018-11-06T14:27:00.098Z,20.26
2018-11-06T14:29:28.547Z,20.25
2018-11-06T14:31:57.043Z,20.28
2018-11-06T14:34:25.513Z,20.28
2018-11-06T14:36:54.155Z,20.28
2018-11-06T14:39:22.643Z,20.30
2018-11-06T14:41:51.163Z,20.31
2018-11-06T14:44:19.641Z,20.31
2018-11-06T14:46:48.167Z,20.31
2018-11-06T14:49:16.727Z,20.31
2018-11-06T14:51:45.170Z,20.31
2018-11-06T14:54:13.654Z,20.32
2018-11-06T14:56:42.110Z,20.31
2018-11-06T14:59:10.623Z,20.32
2018-11-06T15:01:39.140Z,20.31
2018-11-06T15:04:07.606Z,20.32
2018-11-06T15:06:36.095Z,20.31
2018-11-06T15:09:06.483Z,20.31
2018-11-06T15:11:34.991Z,20.34
2018-11-06T15:14:03.479Z,20.33
2018-11-06T15:16:31.951Z,20.32
2018-11-06T15:19:00.440Z,20.33
2018-11-06T15:21:28.939Z,20.33
2018-11-06T15:23:57.412Z,20.34
2018-11-06T15:26:25.960Z,20.32
2018-11-06T15:28:54.399Z,20.34
2018-11-06T15:31:23.933Z,20.34
2018-11-06T15:33:52.404Z,20.32
2018-11-06T15:36:20.883Z,20.33
2018-11-06T15:38:49.378Z,20.33
2018-11-06T15:41:17.968Z,20.34
2018-11-06T15:43:46.400Z,20.34
2018-11-06T15:46:14.895Z,20.32
2018-11-06T15:48:43.501Z,20.34
2018-11-06T15:51:11.892Z,20.33
2018-11-06T15:53:40.384Z,20.34
2018-11-06T15:56:08.875Z,20.34
2018-11-06T15:58:37.411Z,20.35
2018-11-06T16:01:05.931Z,20.34
2018-11-06T16:03:34.463Z,20.34
2018-11-06T16:06:02.950Z,20.34
2018-11-06T16:08:31.414Z,20.34
2018-11-06T16:10:59.908Z,20.35
2018-11-06T16:13:28.408Z,20.34
2018-11-06T16:15:56.890Z,20.34
2018-11-06T16:18:25.420Z,20.34
2018-11-06T16:20:54.028Z,20.34
2018-11-06T16:23:22.516Z,20.34
2018-11-06T16:25:51.008Z,20.35
2018-11-06T16:28:19.508Z,20.34
2018-11-06T16:30:48.053Z,20.33
2018-11-06T16:33:16.546Z,20.33
2018-11-06T16:35:45.102Z,20.33
2018-11-06T16:38:13.592Z,20.33
2018-11-06T16:40:42.084Z,20.33
2018-11-06T16:43:10.584Z,20.33
2018-11-06T16:45:39.088Z,20.33
2018-11-06T16:48:07.598Z,20.33
2018-11-06T16:50:36.083Z,20.32
2018-11-06T16:53:04.591Z,20.33
2018-11-06T16:55:33.065Z,20.32
2018-11-06T16:58:01.584Z,20.32
2018-11-06T17:00:30.090Z,20.33
2018-11-06T17:02:58.572Z,20.32
2018-11-06T17:05:27.068Z,20.35
2018-11-06T17:07:55.545Z,20.33
2018-11-06T17:10:24.062Z,20.33
2018-11-06T17:12:52.541Z,20.33
2018-11-06T17:15:23.232Z,20.34
2018-11-06T17:17:52.806Z,20.34
2018-11-06T17:20:21.807Z,20.34
2018-11-06T17:22:50.286Z,20.34
2018-11-06T17:25:20.007Z,20.35
2018-11-06T17:27:48.501Z,20.34
2018-11-06T17:30:17.991Z,20.34
2018-11-06T17:32:46.610Z,20.35
2018-11-06T17:35:16.291Z,20.35
2018-11-06T17:37:44.966Z,20.35
2018-11-06T17:40:14.680Z,20.36
2018-11-06T17:42:43.597Z,20.35
2018-11-06T17:45:16.811Z,20.36
2018-11-06T17:47:45.283Z,20.34
2018-11-06T17:50:14.952Z,20.36
2018-11-06T17:52:43.446Z,20.34
2018-11-06T17:55:14.192Z,20.34
2018-11-06T17:57:42.767Z,20.35
2018-11-06T18:00:13.455Z,20.35
2018-11-06T18:02:42.400Z,20.35
2018-11-06T18:05:11.886Z,20.35
2018-11-06T18:07:41.116Z,20.36
2018-11-06T18:10:10.814Z,20.36
2018-11-06T18:12:39.299Z,20.36
2018-11-06T18:15:07.826Z,20.36
2018-11-06T18:17:36.872Z,20.37
2018-11-06T18:20:05.793Z,20.37
2018-11-06T18:22:34.590Z,20.37
2018-11-06T18:25:03.120Z,20.38
2018-11-06T18:27:31.628Z,20.38
2018-11-06T18:30:00.111Z,20.37
2018-11-06T18:32:28.613Z,20.38
2018-11-06T18:34:57.491Z,20.39
2018-11-06T18:37:26.043Z,20.38
2018-11-06T18:39:54.523Z,20.39
2018-11-06T18:42:23.024Z,20.38
2018-11-06T18:44:51.503Z,20.39
2018-11-06T18:47:20.037Z,20.38
2018-11-06T18:49:48.622Z,20.38
2018-11-06T18:52:17.058Z,20.40
2018-11-06T18:54:45.570Z,20.37
2018-11-06T18:57:14.060Z,20.38
2018-11-06T18:59:43.968Z,20.39
2018-11-06T19:02:12.462Z,20.39
2018-11-06T19:04:40.960Z,20.39
2018-11-06T19:07:09.455Z,20.39
2018-11-06T19:09:37.995Z,20.39
2018-11-06T19:12:06.540Z,20.39
2018-11-06T19:14:35.021Z,20.38
2018-11-06T19:17:04.342Z,20.39
2018-11-06T19:19:32.880Z,20.38
2018-11-06T19:22:01.479Z,20.39
2018-11-06T19:24:30.003Z,20.38
2018-11-06T19:26:58.521Z,20.38
2018-11-06T19:29:27.125Z,20.38
2018-11-06T19:31:55.637Z,20.38
2018-11-06T19:34:24.136Z,20.39
2018-11-06T19:36:53.560Z,20.38
2018-11-06T19:39:22.722Z,20.38
2018-11-06T19:41:51.241Z,20.38
2018-11-06T19:44:19.745Z,20.38
2018-11-06T19:46:48.937Z,20.38
2018-11-06T19:49:17.946Z,20.38
2018-11-06T19:51:47.011Z,20.39
2018-11-06T19:54:15.705Z,20.39
2018-11-06T19:56:44.149Z,20.39
2018-11-06T19:59:12.619Z,20.39
2018-11-06T20:01:41.127Z,20.39
2018-11-06T20:04:09.606Z,20.38
2018-11-06T20:06:38.083Z,20.39
2018-11-06T20:09:08.915Z,20.39
2018-11-06T20:11:38.057Z,20.38
2018-11-06T20:14:06.718Z,20.39
2018-11-06T20:16:35.768Z,20.39
2018-11-06T20:19:04.567Z,20.39
2018-11-06T20:21:33.128Z,20.39
2018-11-06T20:24:01.599Z,20.38
2018-11-06T20:26:30.082Z,20.39
2018-11-06T20:28:58.567Z,20.39
2018-11-06T20:31:27.056Z,20.39
2018-11-06T20:33:55.631Z,20.38
2018-11-06T20:36:24.044Z,20.39
2018-11-06T20:38:52.788Z,20.39
2018-11-06T20:41:21.303Z,20.40
2018-11-06T20:43:49.775Z,20.40
2018-11-06T20:46:18.425Z,20.39
2018-11-06T20:48:46.881Z,20.40
2018-11-06T20:51:15.543Z,20.40
2018-11-06T20:53:44.066Z,20.41
2018-11-06T20:56:12.586Z,20.40
2018-11-06T20:58:41.084Z,20.40
2018-11-06T21:01:09.934Z,20.40
2018-11-06T21:03:38.490Z,20.41
2018-11-06T21:06:06.966Z,20.40
2018-11-06T21:08:35.526Z,20.40
2018-11-06T21:11:04.089Z,20.41
2018-11-06T21:13:32.660Z,20.40
2018-11-06T21:16:01.111Z,20.40
2018-11-06T21:18:30.405Z,20.39
2018-11-06T21:20:58.863Z,20.40
2018-11-06T21:23:27.547Z,20.40
2018-11-06T21:25:56.291Z,20.39
2018-11-06T21:28:24.701Z,20.40
2018-11-06T21:30:53.186Z,20.39
2018-11-06T21:33:21.694Z,20.39
2018-11-06T21:35:50.192Z,20.38
2018-11-06T21:38:18.679Z,20.39
2018-11-06T21:40:47.194Z,20.39
2018-11-06T21:43:15.781Z,20.38
2018-11-06T21:45:44.258Z,20.38
2018-11-06T21:48:12.768Z,20.38
2018-11-06T21:50:41.262Z,20.38
2018-11-06T21:53:09.722Z,20.39
2018-11-06T21:55:38.211Z,20.39
2018-11-06T21:58:06.687Z,20.39
2018-11-06T22:00:35.234Z,20.40
2018-11-06T22:03:03.691Z,20.39
2018-11-06T22:05:32.195Z,20.39
2018-11-06T22:08:00.666Z,20.38
2018-11-06T22:10:29.159Z,20.38
2018-11-06T22:12:57.700Z,20.38
2018-11-06T22:15:26.150Z,20.37
2018-11-06T22:17:54.631Z,20.38
2018-11-06T22:20:23.114Z,20.36
2018-11-06T22:25:31.791Z,20.37
2018-11-06T22:28:00.266Z,20.38
2018-11-06T22:30:28.762Z,20.37
2018-11-06T22:32:57.272Z,20.36
2018-11-06T22:35:25.757Z,20.36
2018-11-06T22:37:54.285Z,20.35
2018-11-06T22:40:22.808Z,20.35
2018-11-06T22:42:51.296Z,20.34
2018-11-06T22:45:19.782Z,20.34
2018-11-06T22:47:48.307Z,20.32
2018-11-06T22:50:17.920Z,20.32
2018-11-06T22:52:47.518Z,20.32
2018-11-06T22:55:16.721Z,20.31
2018-11-06T22:57:46.421Z,20.30
2018-11-06T23:00:17.424Z,20.30
2018-11-06T23:02:45.923Z,20.30
2018-11-06T23:05:14.726Z,20.30
2018-11-06T23:07:48.565Z,20.30
2018-11-06T23:10:17.055Z,20.31
2018-11-06T23:12:45.543Z,20.32
2018-11-06T23:15:14.039Z,20.08
2018-11-06T23:17:42.543Z,20.31
2018-11-06T23:20:11.079Z,20.32
2018-11-06T23:22:40.956Z,20.30
2018-11-06T23:25:09.518Z,20.30
2018-11-06T23:27:38.922Z,20.30
2018-11-06T23:30:10.082Z,20.29
2018-11-06T23:32:40.297Z,20.28
2018-11-06T23:35:08.815Z,20.29
2018-11-06T23:37:38.967Z,20.29
2018-11-06T23:40:07.908Z,20.28
2018-11-06T23:42:37.723Z,20.27
2018-11-06T23:45:07.296Z,20.27
2018-11-06T23:47:36.926Z,20.28
2018-11-06T23:50:05.898Z,20.28
2018-11-06T23:52:35.893Z,20.27
2018-11-06T23:55:04.588Z,20.27
2018-11-06T23:57:34.553Z,20.27
